Time;durP1;ratioP1;P1;durP2;ratioP2;P2;SDS_P1;SDS_P2;PMS_P1;PMS_P2;Temp;Humidity;BMP_temperature;BMP_pressure;BME280_temperature;BME280_humidity;BME280_pressure;Samples;Min_cycle;Max_cycle;Signal;HPM_P1;HPM_P2
2023/01/29 00:02:27;;;;;;;205.10;111.50;;;;;;;9.81;74.82;98763.16;5026936;28;20041;-63
2023/01/29 00:05:16;;;;;;;188.02;110.75;;;;;;;9.70;75.32;98767.09;5013876;28;20053;-63
2023/01/29 00:08:18;;;;;;;191.73;110.30;;;;;;;9.86;75.89;98752.84;5011929;28;20057;-62
2023/01/29 00:11:15;;;;;;;199.07;114.38;;;;;;;9.85;75.77;98754.66;5033140;28;20056;-62
2023/01/29 00:13:52;;;;;;;205.48;115.38;;;;;;;9.86;75.27;98760.78;5033891;28;20045;-63
2023/01/29 00:16:41;;;;;;;189.75;113.30;;;;;;;9.83;75.65;98758.47;5043165;28;20048;-62
2023/01/29 00:19:23;;;;;;;201.90;112.63;;;;;;;9.84;75.67;98773.34;5044645;28;20468;-63
2023/01/29 00:22:18;;;;;;;217.57;114.90;;;;;;;9.90;74.88;98769.97;5020987;28;20071;-63
2023/01/29 00:24:54;;;;;;;203.65;114.47;;;;;;;9.91;74.62;98768.97;5028851;28;20430;-63
2023/01/29 00:27:43;;;;;;;212.80;118.00;;;;;;;9.77;74.81;98768.00;5026336;28;20053;-63
2023/01/29 00:30:25;;;;;;;205.85;114.22;;;;;;;9.76;75.07;98761.06;5041717;28;20044;-63
2023/01/29 00:33:20;;;;;;;214.82;120.15;;;;;;;9.82;75.29;98768.25;5027289;28;20049;-63
2023/01/29 00:36:04;;;;;;;203.70;114.70;;;;;;;9.88;74.98;98774.63;5025126;28;20520;-62
2023/01/29 00:38:57;;;;;;;216.05;121.57;;;;;;;9.91;75.88;98780.34;5028890;28;20105;-63
2023/01/29 00:45:04;;;;;;;217.63;119.88;;;;;;;9.89;75.59;98769.16;5020282;28;20049;-63
2023/01/29 00:47:53;;;;;;;221.77;123.00;;;;;;;9.74;75.47;98778.94;5027227;28;21168;-62
2023/01/29 00:50:36;;;;;;;219.73;119.53;;;;;;;9.64;75.30;98785.53;5024026;28;20758;-62
2023/01/29 00:53:25;;;;;;;212.15;119.75;;;;;;;9.67;75.83;98780.69;5039544;28;20052;-62
2023/01/29 00:56:07;;;;;;;217.05;121.45;;;;;;;9.66;76.40;98775.56;5036785;28;20045;-63
2023/01/29 00:58:56;;;;;;;218.63;124.85;;;;;;;9.81;75.31;98773.75;5039068;28;20056;-63
2023/01/29 01:04:52;;;;;;;226.75;126.60;;;;;;;9.78;75.04;98785.50;5032632;28;20122;-63
2023/01/29 01:07:28;;;;;;;228.55;127.25;;;;;;;9.85;75.59;98788.22;5025093;28;20049;-64
2023/01/29 01:10:43;;;;;;;233.88;129.35;;;;;;;9.87;75.88;98778.28;5025590;28;20052;-64
2023/01/29 01:13:19;;;;;;;227.07;126.10;;;;;;;9.86;75.49;98784.59;5021861;28;20045;-63
2023/01/29 01:16:17;;;;;;;228.73;127.65;;;;;;;9.86;75.52;98790.69;5021735;28;20056;-66
2023/01/29 01:18:59;;;;;;;224.70;127.25;;;;;;;9.79;75.25;98792.44;5013735;28;20056;-64
2023/01/29 01:21:54;;;;;;;234.90;127.93;;;;;;;9.78;75.67;98793.44;5004174;28;20078;-63
2023/01/29 01:24:29;;;;;;;233.18;129.95;;;;;;;9.78;75.07;98788.13;5002879;28;20059;-62
2023/01/29 01:27:19;;;;;;;243.65;130.30;;;;;;;9.83;74.59;98788.41;5000121;28;20137;-63
2023/01/29 01:30:01;;;;;;;256.60;131.77;;;;;;;9.68;74.55;98779.69;5007086;28;20084;-63
2023/01/29 01:32:50;;;;;;;247.63;132.65;;;;;;;9.73;74.73;98785.25;5006474;28;20042;-62
2023/01/29 01:35:33;;;;;;;259.40;134.57;;;;;;;9.73;75.20;98787.06;5024236;28;20044;-63
2023/01/29 01:38:22;;;;;;;261.25;132.23;;;;;;;9.75;74.62;98780.59;5006182;28;20049;-63
2023/01/29 01:41:04;;;;;;;256.83;132.82;;;;;;;9.59;74.94;98786.09;5018020;28;20111;-63
2023/01/29 01:43:54;;;;;;;247.23;131.82;;;;;;;9.55;75.25;98792.75;5007852;28;20664;-64
2023/01/29 01:46:40;;;;;;;250.57;129.73;;;;;;;9.62;75.60;98790.16;5039718;28;20099;-64
2023/01/29 01:49:30;;;;;;;253.95;130.50;;;;;;;9.76;75.00;98795.44;5047384;28;20048;-64
2023/01/29 01:52:15;;;;;;;233.68;127.03;;;;;;;9.94;74.35;98789.75;5021771;28;20054;-64
2023/01/29 01:55:06;;;;;;;238.05;128.02;;;;;;;9.46;74.08;98799.13;5027559;28;20530;-64
2023/01/29 01:57:52;;;;;;;241.52;125.55;;;;;;;9.37;75.43;98800.22;5026340;28;20041;-67
2023/01/29 02:00:41;;;;;;;245.68;130.45;;;;;;;9.29;75.56;98810.88;5035984;28;20107;-68
2023/01/29 02:09:42;;;;;;;251.27;129.82;;;;;;;9.38;77.01;98823.03;5028297;28;20053;-67
2023/01/29 02:12:32;;;;;;;246.93;129.38;;;;;;;9.42;75.86;98813.72;5029135;28;20053;-69
2023/01/29 02:15:14;;;;;;;259.77;136.35;;;;;;;9.33;75.78;98818.28;5013268;28;20041;-66
2023/01/29 02:18:03;;;;;;;256.00;134.02;;;;;;;9.30;76.24;98823.06;5046447;28;20063;-67
2023/01/29 02:20:49;;;;;;;248.38;132.13;;;;;;;9.34;75.92;98838.41;5039170;28;20080;-67
2023/01/29 02:24:11;;;;;;;250.43;134.40;;;;;;;9.26;75.66;98830.56;5027023;28;20049;-66
2023/01/29 02:27:05;;;;;;;255.02;133.80;;;;;;;9.33;76.21;98838.59;5028764;28;20146;-65
2023/01/29 02:30:17;;;;;;;255.40;134.85;;;;;;;9.32;75.00;98840.41;5044049;28;20043;-66
2023/01/29 02:33:37;;;;;;;261.50;132.48;;;;;;;9.40;74.97;98847.44;5006653;28;20056;-67
2023/01/29 02:36:28;;;;;;;244.65;129.27;;;;;;;9.47;74.84;98862.38;5010134;28;20050;-65
2023/01/29 02:39:30;;;;;;;259.75;128.45;;;;;;;9.54;74.50;98870.41;5026641;28;20045;-66
2023/01/29 02:42:34;;;;;;;242.40;126.40;;;;;;;9.64;73.62;98886.00;5026012;28;20804;-65
2023/01/29 02:45:30;;;;;;;241.10;125.03;;;;;;;9.77;74.22;98892.31;5045474;28;20056;-67
2023/01/29 02:48:22;;;;;;;249.38;123.78;;;;;;;9.84;72.96;98881.81;5038385;28;20053;-67
2023/01/29 02:51:19;;;;;;;232.45;122.40;;;;;;;9.99;73.14;98889.75;5025061;28;20045;-68
2023/01/29 02:54:12;;;;;;;249.15;124.15;;;;;;;10.12;73.24;98888.09;5027315;28;20060;-67
2023/01/29 02:57:13;;;;;;;233.40;121.30;;;;;;;10.22;71.75;98903.72;5027565;28;20049;-69
2023/01/29 03:00:05;;;;;;;223.88;120.05;;;;;;;10.60;73.10;98918.41;5011051;28;20060;-67
2023/01/29 03:03:00;;;;;;;242.02;123.68;;;;;;;10.73;72.08;98925.66;5008214;28;20386;-68
2023/01/29 03:06:17;;;;;;;224.65;122.82;;;;;;;10.80;71.77;98922.06;5009259;28;20077;-69
2023/01/29 03:09:39;;;;;;;220.57;120.38;;;;;;;10.92;71.12;98918.94;5010488;28;20045;-68
2023/01/29 03:12:32;;;;;;;222.25;117.30;;;;;;;11.18;68.76;98927.13;5014649;28;20065;-69
2023/01/29 03:15:23;;;;;;;226.52;122.13;;;;;;;11.35;67.67;98938.28;5023252;28;20152;-66
2023/01/29 03:18:44;;;;;;;233.52;118.05;;;;;;;11.22;68.60;98962.84;5025455;28;20116;-67
2023/01/29 03:21:59;;;;;;;226.70;118.18;;;;;;;11.19;68.40;98973.84;5038595;28;20478;-68
2023/01/29 03:34:37;;;;;;;186.90;102.78;;;;;;;11.92;65.78;99015.06;5045749;28;20764;-68
2023/01/29 03:37:18;;;;;;;203.80;106.65;;;;;;;12.15;65.79;99019.13;5027318;28;20056;-68
2023/01/29 03:40:18;;;;;;;203.18;107.10;;;;;;;12.44;66.27;99017.22;5024100;28;20063;-69
2023/01/29 03:43:09;;;;;;;202.15;107.45;;;;;;;12.48;65.48;99026.47;5025923;28;20049;-68
2023/01/29 03:46:17;;;;;;;200.82;107.60;;;;;;;12.76;64.60;99031.69;5008533;28;20049;-69
2023/01/29 03:49:07;;;;;;;193.88;105.18;;;;;;;12.63;63.90;99036.94;5032307;28;20045;-68
2023/01/29 03:52:07;;;;;;;200.65;105.40;;;;;;;12.72;64.43;99051.72;5023413;28;20444;-69
2023/01/29 03:55:32;;;;;;;192.75;104.85;;;;;;;13.03;63.97;99058.19;5024353;28;20059;-67
2023/01/29 03:58:29;;;;;;;191.95;100.88;;;;;;;13.50;62.75;99064.47;5024004;28;20136;-69
2023/01/29 04:01:23;;;;;;;175.98;96.53;;;;;;;13.55;61.04;99062.00;5028601;28;20048;-68
2023/01/29 04:04:14;;;;;;;158.95;81.82;;;;;;;13.74;60.51;99074.53;5027849;28;20736;-69
2023/01/29 04:07:23;;;;;;;143.68;81.57;;;;;;;14.11;60.23;99081.13;5027886;28;20053;-69
2023/01/29 04:10:16;;;;;;;152.57;79.68;;;;;;;14.55;59.51;99079.66;5027852;28;20049;-67
2023/01/29 04:13:10;;;;;;;134.18;72.00;;;;;;;14.75;56.89;99075.88;5042537;28;20110;-69
2023/01/29 04:15:57;;;;;;;128.02;70.93;;;;;;;15.72;55.42;99058.78;5031784;28;20056;-69
2023/01/29 04:19:00;;;;;;;127.93;70.60;;;;;;;15.76;54.60;99072.50;5024011;28;20211;-67
2023/01/29 04:21:50;;;;;;;117.03;63.67;;;;;;;15.82;54.13;99083.16;5036860;28;20037;-68
2023/01/29 04:24:41;;;;;;;96.18;53.90;;;;;;;15.84;54.02;99078.44;5020675;28;20128;-68
2023/01/29 04:27:36;;;;;;;88.25;50.70;;;;;;;16.50;52.65;99088.56;5040373;28;20045;-68
2023/01/29 04:30:29;;;;;;;76.00;43.72;;;;;;;16.80;49.73;99097.50;5022360;28;20484;-68
2023/01/29 04:33:22;;;;;;;66.45;39.83;;;;;;;16.37;50.35;99104.72;5015831;28;20055;-69
2023/01/29 04:36:44;;;;;;;78.25;40.05;;;;;;;17.16;49.14;99106.56;5030533;28;20065;-67
2023/01/29 04:39:36;;;;;;;72.65;40.95;;;;;;;16.98;49.90;99100.19;5024993;28;20448;-68
2023/01/29 04:42:25;;;;;;;85.95;41.40;;;;;;;17.34;48.65;99101.19;5036121;28;20056;-69
2023/01/29 04:45:40;;;;;;;70.85;41.30;;;;;;;16.88;48.94;99091.03;5032082;28;20053;-68
2023/01/29 04:48:25;;;;;;;78.45;43.42;;;;;;;17.26;48.44;99082.78;5028834;28;20060;-68
2023/01/29 04:51:28;;;;;;;66.97;38.95;;;;;;;18.06;47.48;99072.50;5041707;28;20048;-69
2023/01/29 04:54:37;;;;;;;57.53;34.03;;;;;;;17.20;47.60;99072.94;5025032;28;20140;-69
2023/01/29 04:57:51;;;;;;;57.70;35.67;;;;;;;16.94;50.19;99082.94;5010769;28;20099;-66
2023/01/29 05:00:38;;;;;;;60.13;35.78;;;;;;;16.92;49.84;99074.31;5023448;28;20147;-68
2023/01/29 05:03:33;;;;;;;65.38;39.90;;;;;;;16.81;48.08;99088.47;4989856;28;20055;-68
2023/01/29 05:06:23;;;;;;;68.65;39.88;;;;;;;17.13;49.54;99082.94;5033467;28;20052;-68
2023/01/29 05:09:08;;;;;;;62.35;37.95;;;;;;;16.76;47.90;99093.66;5028401;28;20071;-67
2023/01/29 05:12:04;;;;;;;60.65;34.35;;;;;;;16.71;48.36;99071.28;5016919;28;20041;-68
2023/01/29 05:14:43;;;;;;;55.80;34.65;;;;;;;16.83;48.29;99072.16;5028475;28;20045;-68
2023/01/29 05:17:38;;;;;;;56.35;34.70;;;;;;;16.90;49.09;99072.91;5048112;28;20052;-68
2023/01/29 05:20:14;;;;;;;55.22;34.58;;;;;;;16.96;48.68;99072.81;5048815;28;20049;-68
2023/01/29 05:23:04;;;;;;;54.47;32.87;;;;;;;17.04;48.68;99085.06;5022666;28;20412;-68
2023/01/29 05:25:54;;;;;;;64.30;34.97;;;;;;;17.16;48.42;99085.97;5026325;28;20524;-68
2023/01/29 05:28:36;;;;;;;61.08;35.03;;;;;;;17.49;48.05;99070.28;5028219;28;20069;-68
2023/01/29 05:31:25;;;;;;;56.40;33.22;;;;;;;17.89;45.82;99070.53;5035466;28;20050;-68
2023/01/29 05:34:13;;;;;;;55.95;32.00;;;;;;;17.12;46.09;99055.34;5028466;28;20049;-67
2023/01/29 05:37:08;;;;;;;63.75;30.92;;;;;;;17.57;44.40;99058.41;5008807;28;20136;-69
2023/01/29 05:39:43;;;;;;;62.15;31.48;;;;;;;17.38;46.70;99063.03;4988915;28;20050;-69
2023/01/29 05:42:32;;;;;;;49.05;28.33;;;;;;;17.71;45.72;99067.91;4985586;28;20057;-68
2023/01/29 05:45:15;;;;;;;52.55;31.75;;;;;;;17.86;45.79;99044.19;5011818;28;20052;-64
2023/01/29 05:48:11;;;;;;;68.55;32.60;;;;;;;18.01;45.32;99032.22;5010357;28;20053;-68
2023/01/29 05:50:46;;;;;;;52.38;30.77;;;;;;;18.12;44.82;99039.44;5026852;28;20052;-65
2023/01/29 05:53:36;;;;;;;54.00;29.10;;;;;;;18.07;44.36;99025.91;5013711;28;20091;-65
2023/01/29 05:56:25;;;;;;;53.63;30.00;;;;;;;17.53;44.14;99022.41;5012906;28;20052;-67
2023/01/29 05:59:07;;;;;;;54.13;30.25;;;;;;;17.70;44.91;99019.94;5028116;28;20049;-63
2023/01/29 06:01:57;;;;;;;63.00;31.58;;;;;;;17.74;44.90;99016.56;5017052;28;20041;-66
2023/01/29 06:04:39;;;;;;;61.45;31.33;;;;;;;17.91;45.88;99022.88;5023514;28;20048;-66
2023/01/29 06:07:29;;;;;;;63.33;32.35;;;;;;;18.03;46.04;99014.03;4994856;28;20044;-66
2023/01/29 06:10:18;;;;;;;59.28;31.05;;;;;;;18.04;44.85;99037.09;5016060;28;20034;-66
2023/01/29 06:13:07;;;;;;;54.13;30.35;;;;;;;18.09;44.38;99034.53;5001447;28;20133;-65
2023/01/29 06:15:49;;;;;;;47.55;28.08;;;;;;;18.18;43.85;99015.19;5013244;28;20056;-67
2023/01/29 06:18:38;;;;;;;49.95;29.75;;;;;;;18.40;46.03;99023.47;4997452;28;20411;-67
2023/01/29 06:21:20;;;;;;;54.45;29.48;;;;;;;18.21;45.49;99024.63;5000052;28;20041;-67
2023/01/29 06:24:09;;;;;;;56.33;28.45;;;;;;;18.39;44.90;99017.28;5024379;28;20053;-66
2023/01/29 06:26:58;;;;;;;51.08;29.38;;;;;;;18.20;44.34;99018.44;5013134;28;20096;-67
2023/01/29 06:29:40;;;;;;;61.00;30.60;;;;;;;18.27;43.65;99018.34;5007193;28;20615;-65
2023/01/29 06:32:35;;;;;;;55.35;31.10;;;;;;;18.51;43.98;99011.88;4997741;28;20050;-65
2023/01/29 06:35:25;;;;;;;62.00;29.05;;;;;;;18.55;44.35;99026.50;5012335;28;20053;-69
2023/01/29 06:38:14;;;;;;;54.80;30.60;;;;;;;18.44;44.73;99021.94;5033845;28;20045;-67
2023/01/29 06:41:12;;;;;;;57.00;32.47;;;;;;;18.22;46.31;98992.22;5035559;28;20053;-64
2023/01/29 06:43:54;;;;;;;57.13;32.95;;;;;;;18.72;45.16;98994.41;4994593;28;20033;-66
2023/01/29 06:46:43;;;;;;;59.30;31.73;;;;;;;18.67;45.50;98987.06;5034398;28;20146;-65
2023/01/29 06:49:25;;;;;;;56.20;30.67;;;;;;;18.38;46.77;98988.00;5039667;28;20056;-66
2023/01/29 06:52:21;;;;;;;63.97;33.70;;;;;;;18.54;46.64;98978.47;5025847;28;20057;-65
2023/01/29 06:54:57;;;;;;;57.65;32.15;;;;;;;18.04;46.98;98975.47;5025063;28;20049;-68
2023/01/29 06:57:46;;;;;;;60.00;32.70;;;;;;;18.40;47.51;98978.69;5044641;28;20044;-67
2023/01/29 07:00:35;;;;;;;55.90;31.65;;;;;;;18.32;46.71;98978.25;5032522;28;20396;-66
2023/01/29 07:03:17;;;;;;;56.40;32.45;;;;;;;18.06;46.40;98960.75;5024810;28;20053;-64
2023/01/29 07:06:07;;;;;;;54.65;29.65;;;;;;;17.88;46.48;98955.50;5036745;28;20053;-66
2023/01/29 07:09:14;;;;;;;54.72;29.75;;;;;;;18.20;47.41;98964.00;5035868;28;20171;-64
2023/01/29 07:12:24;;;;;;;55.30;30.42;;;;;;;18.51;46.58;98955.56;5026036;28;20064;-67
2023/01/29 07:15:26;;;;;;;54.28;30.27;;;;;;;18.18;46.46;98955.41;4997140;28;20438;-66
2023/01/29 07:18:37;;;;;;;55.45;31.85;;;;;;;18.26;46.35;98938.94;4999150;28;20049;-66
2023/01/29 07:21:40;;;;;;;56.42;34.25;;;;;;;18.08;48.28;98939.09;5010356;28;20115;-67
2023/01/29 07:24:49;;;;;;;72.50;38.10;;;;;;;18.29;49.33;98935.78;4990868;28;20086;-68
2023/01/29 07:27:51;;;;;;;57.83;35.67;;;;;;;18.52;49.39;98930.38;5009285;28;20049;-66
2023/01/29 07:31:05;;;;;;;68.45;38.15;;;;;;;18.12;50.93;98927.66;5012620;28;20058;-66
2023/01/29 07:34:08;;;;;;;66.57;38.38;;;;;;;17.86;51.89;98931.66;5008186;28;20033;-67
2023/01/29 07:37:23;;;;;;;68.65;38.63;;;;;;;17.98;51.75;98925.47;5015621;28;20045;-66
2023/01/29 07:40:19;;;;;;;80.65;39.22;;;;;;;17.98;51.93;98912.06;5015939;28;20045;-67
2023/01/29 07:43:29;;;;;;;71.93;39.22;;;;;;;18.13;52.78;98904.34;5021883;28;20124;-66
2023/01/29 07:46:31;;;;;;;65.13;38.35;;;;;;;17.85;53.98;98913.13;5017908;28;20158;-66
2023/01/29 07:49:40;;;;;;;67.65;39.10;;;;;;;18.15;53.60;98899.56;5020591;28;20068;-64
2023/01/29 07:52:43;;;;;;;64.47;38.85;;;;;;;18.03;53.82;98902.28;5018815;28;20053;-62
2023/01/29 07:55:52;;;;;;;63.00;38.67;;;;;;;17.76;55.11;98893.09;5017603;28;20826;-63
2023/01/29 07:58:55;;;;;;;64.25;41.08;;;;;;;18.25;54.49;98887.19;5019224;28;20103;-64
2023/01/29 08:02:04;;;;;;;73.75;40.58;;;;;;;18.08;54.91;98886.31;5031153;28;20393;-63
2023/01/29 08:05:14;;;;;;;66.70;40.47;;;;;;;17.78;54.43;98867.72;5031133;28;20148;-64
2023/01/29 08:08:16;;;;;;;72.10;42.35;;;;;;;17.86;54.82;98869.22;5018324;28;20058;-65
2023/01/29 08:11:25;;;;;;;64.88;39.92;;;;;;;18.13;55.07;98864.16;5018311;28;20077;-62
2023/01/29 08:14:27;;;;;;;70.80;41.83;;;;;;;17.99;54.37;98857.41;5018456;28;20034;-62
2023/01/29 08:17:38;;;;;;;66.65;40.92;;;;;;;18.18;54.65;98856.22;5019507;28;20055;-63
2023/01/29 08:21:01;;;;;;;71.78;41.38;;;;;;;18.12;54.70;98849.09;5020069;28;20430;-62
2023/01/29 08:24:14;;;;;;;71.13;40.95;;;;;;;17.85;54.52;98852.31;5015205;28;20836;-62
2023/01/29 08:27:25;;;;;;;63.60;38.70;;;;;;;17.62;55.04;98855.00;5021163;28;20083;-62
2023/01/29 08:30:36;;;;;;;70.47;41.53;;;;;;;17.74;55.30;98853.16;5035759;28;20136;-62
2023/01/29 08:33:45;;;;;;;66.80;41.10;;;;;;;17.75;54.98;98827.97;5038862;28;20113;-61
2023/01/29 08:36:48;;;;;;;67.47;42.13;;;;;;;17.69;55.39;98830.78;5020232;28;20049;-61
2023/01/29 08:39:58;;;;;;;64.97;41.88;;;;;;;17.90;55.78;98828.31;5020932;28;20084;-62
2023/01/29 08:43:05;;;;;;;67.65;41.72;;;;;;;17.64;56.46;98831.50;5014411;28;20131;-64
2023/01/29 08:46:15;;;;;;;74.72;43.47;;;;;;;17.85;56.10;98836.25;5011294;28;20045;-63
2023/01/29 08:49:17;;;;;;;76.70;41.92;;;;;;;17.79;56.48;98826.44;5009089;28;20053;-64
2023/01/29 08:52:26;;;;;;;67.97;43.55;;;;;;;17.89;56.91;98828.53;5007740;28;20144;-61
2023/01/29 08:55:35;;;;;;;70.60;40.67;;;;;;;17.82;56.47;98809.91;5017231;28;20437;-63
2023/01/29 08:58:38;;;;;;;69.90;42.83;;;;;;;17.94;57.08;98818.75;5020598;28;20053;-63
2023/01/29 09:01:47;;;;;;;78.13;42.78;;;;;;;17.89;57.50;98823.19;4982581;28;20144;-62
2023/01/29 09:04:49;;;;;;;68.35;40.80;;;;;;;17.92;56.88;98823.50;5007878;28;20038;-61
2023/01/29 09:07:58;;;;;;;74.88;42.97;;;;;;;17.76;57.01;98818.91;5012334;28;20046;-61
2023/01/29 09:11:01;;;;;;;68.10;40.75;;;;;;;17.67;56.62;98817.63;5017664;28;20069;-61
2023/01/29 09:14:11;;;;;;;74.38;42.80;;;;;;;17.65;57.06;98816.25;5018672;28;20038;-66
2023/01/29 09:17:22;;;;;;;69.65;43.08;;;;;;;17.74;56.38;98812.16;5019622;28;20045;-59
2023/01/29 09:20:25;;;;;;;88.40;44.28;;;;;;;17.57;57.02;98808.53;5013760;28;20057;-62
2023/01/29 09:23:14;;;;;;;76.18;44.38;;;;;;;17.70;57.00;98798.41;5021980;28;20046;-65
2023/01/29 09:25:56;;;;;;;73.43;45.28;;;;;;;17.62;57.29;98798.75;5016727;28;20980;-61
2023/01/29 09:28:52;;;;;;;87.55;48.13;;;;;;;17.45;57.56;98798.63;5017625;28;20069;-63
2023/01/29 09:31:28;;;;;;;78.97;44.55;;;;;;;17.53;58.66;98802.81;5022399;28;20065;-62
2023/01/29 09:34:17;;;;;;;81.60;47.10;;;;;;;17.65;58.30;98803.66;5020512;28;20365;-61
2023/01/29 09:36:59;;;;;;;78.55;45.42;;;;;;;17.43;58.81;98813.31;5030676;28;20073;-65
2023/01/29 09:39:56;;;;;;;80.03;48.17;;;;;;;17.24;59.35;98809.13;5028517;28;20551;-63
2023/01/29 09:42:47;;;;;;;82.63;46.97;;;;;;;17.40;59.74;98809.22;5031164;28;20053;-61
2023/01/29 09:45:46;;;;;;;83.35;48.95;;;;;;;17.30;60.55;98806.34;5030495;28;20053;-60
2023/01/29 09:48:28;;;;;;;91.10;50.55;;;;;;;17.23;61.48;98821.69;5032132;28;20542;-61
2023/01/29 09:51:46;;;;;;;87.60;52.53;;;;;;;17.21;61.04;98822.97;5032457;28;20060;-61
2023/01/29 09:54:42;;;;;;;90.45;51.97;;;;;;;17.05;61.08;98822.59;5034539;28;20057;-61
2023/01/29 09:58:04;;;;;;;91.53;53.60;;;;;;;17.25;61.30;98816.13;5028886;28;20057;-65
2023/01/29 10:01:00;;;;;;;90.93;54.60;;;;;;;17.18;60.85;98823.44;5034545;28;20053;-63
2023/01/29 10:03:58;;;;;;;99.85;56.55;;;;;;;17.02;61.47;98817.72;5039603;28;20045;-64
2023/01/29 10:06:45;;;;;;;103.05;60.88;;;;;;;16.98;60.87;98813.06;5022328;28;20493;-64
2023/01/29 10:10:07;;;;;;;105.15;61.47;;;;;;;16.99;60.87;98810.13;5036492;28;20057;-62
2023/01/29 10:13:18;;;;;;;106.47;59.38;;;;;;;16.90;60.50;98800.84;5035966;28;20056;-64
2023/01/29 10:16:27;;;;;;;115.40;63.63;;;;;;;17.05;61.33;98795.84;5032472;28;20477;-64
2023/01/29 10:19:24;;;;;;;112.00;63.00;;;;;;;16.96;60.95;98799.91;5033775;28;20148;-63
2023/01/29 10:22:13;;;;;;;107.95;64.63;;;;;;;16.86;61.21;98799.66;5036412;28;20057;-63
2023/01/29 10:25:16;;;;;;;112.57;65.40;;;;;;;16.84;61.80;98788.38;5037953;28;20108;-63
2023/01/29 10:28:00;;;;;;;109.95;66.22;;;;;;;16.71;62.26;98793.94;5031772;28;20259;-63
2023/01/29 10:30:54;;;;;;;111.60;67.28;;;;;;;16.51;62.21;98820.94;5034558;28;20040;-64
2023/01/29 10:33:42;;;;;;;120.28;66.50;;;;;;;16.32;62.93;98824.72;5009587;28;20100;-62
2023/01/29 10:36:53;;;;;;;124.55;66.20;;;;;;;16.36;62.41;98838.44;5010936;28;20045;-60
2023/01/29 10:39:30;;;;;;;128.07;69.07;;;;;;;16.29;62.46;98832.34;5018634;28;20144;-60
2023/01/29 10:42:46;;;;;;;114.20;67.72;;;;;;;16.26;62.59;98832.81;5024589;28;20073;-63
2023/01/29 10:45:58;;;;;;;119.35;66.20;;;;;;;16.16;63.08;98823.47;5004858;28;20049;-61
2023/01/29 10:48:56;;;;;;;112.63;65.70;;;;;;;16.16;63.25;98810.09;5023348;28;20148;-62
2023/01/29 10:52:02;;;;;;;134.15;69.95;;;;;;;15.96;63.84;98806.06;5023112;28;20120;-60
2023/01/29 10:55:13;;;;;;;128.75;66.43;;;;;;;16.02;63.72;98813.19;5022406;28;20057;-62
2023/01/29 10:58:10;;;;;;;119.20;68.20;;;;;;;15.96;65.44;98809.56;5023614;28;20042;-62
2023/01/29 11:01:06;;;;;;;131.38;72.70;;;;;;;15.86;67.20;98806.59;5024518;28;20049;-61
2023/01/29 11:03:41;;;;;;;136.18;74.35;;;;;;;15.74;69.35;98808.38;5025583;28;20053;-62
2023/01/29 11:06:33;;;;;;;135.18;76.43;;;;;;;15.68;69.93;98803.91;5025699;28;20050;-62
2023/01/29 11:09:52;;;;;;;125.55;75.32;;;;;;;15.51;70.71;98798.34;5024911;28;20611;-61
2023/01/29 11:12:37;;;;;;;144.55;77.55;;;;;;;15.43;71.07;98790.63;5024573;28;20093;-64
2023/01/29 11:15:37;;;;;;;144.13;79.05;;;;;;;15.37;71.59;98809.34;5023998;28;20056;-62
2023/01/29 11:18:19;;;;;;;152.20;82.60;;;;;;;15.23;72.57;98808.66;5024346;28;20586;-58
2023/01/29 11:21:10;;;;;;;145.95;80.25;;;;;;;15.07;74.72;98807.38;5025530;28;20045;-57
2023/01/29 11:24:16;;;;;;;158.40;85.10;;;;;;;14.79;76.79;98820.31;5032624;28;20045;-60
2023/01/29 11:27:06;;;;;;;160.73;83.47;;;;;;;14.55;78.17;98805.94;5026592;28;20053;-63
2023/01/29 11:29:55;;;;;;;154.68;83.47;;;;;;;14.56;78.06;98812.09;5023301;28;20049;-59
2023/01/29 11:32:41;;;;;;;156.20;86.78;;;;;;;14.51;78.73;98801.25;5022949;28;20062;-61
2023/01/29 11:35:37;;;;;;;153.07;84.07;;;;;;;14.45;79.46;98797.59;5021123;28;20049;-62
2023/01/29 11:38:28;;;;;;;164.23;86.32;;;;;;;14.23;79.97;98794.41;5025873;28;20519;-61
2023/01/29 11:41:21;;;;;;;169.85;87.55;;;;;;;14.30;80.35;98816.50;5022850;28;20063;-59
2023/01/29 11:44:39;;;;;;;151.60;83.10;;;;;;;14.28;80.35;98820.41;5023731;28;20060;-62
2023/01/29 11:47:24;;;;;;;158.35;86.63;;;;;;;14.14;80.54;98819.66;5023310;28;20131;-59
2023/01/29 11:50:22;;;;;;;158.93;86.90;;;;;;;14.23;80.46;98821.06;5022746;28;20049;-61
2023/01/29 11:53:06;;;;;;;151.77;85.95;;;;;;;14.24;80.31;98828.03;5023168;28;21050;-66
2023/01/29 11:55:55;;;;;;;166.77;86.65;;;;;;;14.25;80.54;98826.19;5020482;28;20053;-66
2023/01/29 11:58:40;;;;;;;156.90;86.45;;;;;;;14.27;81.02;98827.59;5017631;28;20911;-60
2023/01/29 12:01:37;;;;;;;163.93;90.13;;;;;;;14.32;80.95;98837.59;5027461;28;20088;-63
2023/01/29 12:04:32;;;;;;;161.70;90.50;;;;;;;14.32;80.77;98827.78;5032510;28;20152;-62
2023/01/29 12:07:17;;;;;;;165.05;93.07;;;;;;;14.28;81.09;98828.41;5025464;28;20116;-62
2023/01/29 12:10:06;;;;;;;162.45;93.50;;;;;;;14.34;81.06;98822.22;5030952;28;20602;-62
2023/01/29 12:12:48;;;;;;;163.20;95.25;;;;;;;14.34;81.43;98836.34;5026046;28;20049;-65
2023/01/29 12:15:37;;;;;;;167.57;93.57;;;;;;;14.41;80.81;98841.69;5031709;28;20386;-65
2023/01/29 12:18:40;;;;;;;167.75;95.28;;;;;;;14.49;80.57;98838.78;5027412;28;20056;-61
2023/01/29 12:21:43;;;;;;;163.02;91.28;;;;;;;14.36;80.20;98842.31;5020692;28;20055;-62
2023/01/29 12:24:49;;;;;;;147.77;87.05;;;;;;;14.43;79.62;98847.59;5022285;28;20114;-65
2023/01/29 12:28:17;;;;;;;145.40;84.65;;;;;;;14.48;79.40;98855.78;5023267;28;20061;-61
2023/01/29 12:31:12;;;;;;;139.13;80.85;;;;;;;14.53;79.39;98850.63;5022205;28;20551;-64
2023/01/29 12:34:23;;;;;;;141.88;80.57;;;;;;;14.58;79.00;98844.66;5022610;28;20071;-62
2023/01/29 12:37:56;;;;;;;145.18;79.93;;;;;;;14.54;78.20;98843.47;5022483;28;20049;-60
2023/01/29 12:41:31;;;;;;;129.68;74.75;;;;;;;14.53;78.28;98841.81;4989716;28;20057;-62
2023/01/29 12:44:32;;;;;;;131.60;72.13;;;;;;;14.51;77.26;98835.91;4997323;28;20538;-65
2023/01/29 12:47:47;;;;;;;122.72;68.35;;;;;;;14.58;77.34;98850.81;5010716;28;20069;-68
2023/01/29 12:50:41;;;;;;;116.07;62.88;;;;;;;14.57;75.96;98845.69;5020625;28;20107;-66
2023/01/29 12:53:49;;;;;;;106.90;60.88;;;;;;;14.49;75.93;98846.75;5024217;28;20041;-62
2023/01/29 12:56:41;;;;;;;101.00;57.17;;;;;;;14.50;76.28;98843.06;5023308;28;20042;-60
2023/01/29 12:59:28;;;;;;;98.57;52.42;;;;;;;14.56;75.12;98828.09;5022018;28;20432;-64
2023/01/29 13:02:34;;;;;;;95.00;49.78;;;;;;;14.50;74.33;98826.25;5015883;28;20060;-62
2023/01/29 13:05:34;;;;;;;85.57;48.55;;;;;;;14.50;74.63;98835.09;5019529;28;20034;-59
2023/01/29 13:08:56;;;;;;;86.15;48.28;;;;;;;14.48;74.72;98833.63;5020580;28;20048;-62
2023/01/29 13:11:52;;;;;;;91.93;50.10;;;;;;;14.43;74.81;98836.16;5022109;28;20063;-60
2023/01/29 13:14:54;;;;;;;91.20;48.40;;;;;;;14.45;75.46;98839.41;5018523;28;20132;-65
2023/01/29 13:17:41;;;;;;;77.82;46.28;;;;;;;14.42;75.54;98834.50;4662419;28;10000753;-68
2023/01/29 13:20:40;;;;;;;87.50;46.63;;;;;;;14.45;75.92;98844.75;5012990;28;20049;-62
2023/01/29 13:23:38;;;;;;;84.03;47.10;;;;;;;14.46;76.17;98835.72;5021294;28;20049;-63
2023/01/29 13:26:29;;;;;;;86.80;45.92;;;;;;;14.44;76.60;98849.25;5023046;28;20128;-61
2023/01/29 13:29:28;;;;;;;78.85;45.33;;;;;;;14.41;76.80;98843.53;5017149;28;20042;-61
2023/01/29 13:32:37;;;;;;;75.63;43.25;;;;;;;14.47;76.85;98843.47;5019363;28;20091;-62
2023/01/29 13:35:15;;;;;;;75.47;45.08;;;;;;;14.54;76.65;98846.13;5009494;28;20055;-66
2023/01/29 13:38:20;;;;;;;82.72;46.42;;;;;;;14.48;77.05;98841.63;5018394;28;20042;-66
2023/01/29 13:41:12;;;;;;;82.25;45.97;;;;;;;14.44;77.46;98837.75;5012701;28;20057;-62
2023/01/29 13:43:55;;;;;;;87.05;47.75;;;;;;;14.50;77.47;98832.41;5026407;28;20073;-61
2023/01/29 13:46:47;;;;;;;84.60;46.05;;;;;;;14.48;77.68;98834.47;5026464;28;20514;-63